createdAt,value
2018-09-07T00:00:00.118Z,0
2018-09-07T00:01:10.077Z,0
2018-09-07T00:02:20.028Z,0
2018-09-07T00:03:29.464Z,0
2018-09-07T00:04:38.474Z,0
2018-09-07T00:05:48.452Z,0
2018-09-07T00:06:57.382Z,0
2018-09-07T00:08:07.084Z,0
2018-09-07T00:09:16.786Z,0
2018-09-07T00:10:26.250Z,0
2018-09-07T00:11:36.215Z,0
2018-09-07T00:12:46.178Z,0
2018-09-07T00:13:56.130Z,0
2018-09-07T00:15:06.093Z,0
2018-09-07T00:16:16.057Z,0
2018-09-07T00:17:26.034Z,0
2018-09-07T00:18:35.999Z,0
2018-09-07T00:19:45.697Z,0
2018-09-07T00:20:55.389Z,0
2018-09-07T00:22:05.345Z,0
2018-09-07T00:23:15.042Z,0
2018-09-07T00:24:25.009Z,0
2018-09-07T00:25:34.705Z,0
2018-09-07T00:26:44.676Z,0
2018-09-07T00:27:54.112Z,0
2018-09-07T00:29:03.837Z,0
2018-09-07T00:30:13.543Z,0
2018-09-07T00:31:22.990Z,0
2018-09-07T00:32:32.956Z,0
2018-09-07T00:33:42.403Z,0
2018-09-07T00:34:52.357Z,0
2018-09-07T00:36:02.063Z,0
2018-09-07T00:37:11.757Z,0
2018-09-07T00:38:21.737Z,0
2018-09-07T00:39:31.702Z,0
2018-09-07T00:40:40.901Z,0
2018-09-07T00:41:50.611Z,0
2018-09-07T00:43:00.569Z,0
2018-09-07T00:44:10.525Z,0
2018-09-07T00:45:20.241Z,0
2018-09-07T00:46:29.949Z,0
2018-09-07T00:47:39.654Z,0
2018-09-07T00:48:49.628Z,0
2018-09-07T00:49:59.575Z,0
2018-09-07T00:51:09.267Z,0
2018-09-07T00:52:18.979Z,0
2018-09-07T00:53:28.939Z,0
2018-09-07T00:54:38.644Z,0
2018-09-07T00:55:48.602Z,0
2018-09-07T00:56:58.566Z,0
2018-09-07T00:58:08.010Z,0
2018-09-07T00:59:17.969Z,0
2018-09-07T01:00:27.937Z,0
2018-09-07T01:01:37.383Z,0
2018-09-07T01:02:47.346Z,0
2018-09-07T01:03:57.310Z,0
2018-09-07T01:05:07.280Z,0
2018-09-07T01:06:16.729Z,0
2018-09-07T01:07:26.685Z,0
2018-09-07T01:08:36.394Z,0
2018-09-07T01:09:46.091Z,0
2018-09-07T01:10:55.561Z,0
2018-09-07T01:12:05.261Z,0
2018-09-07T01:13:15.217Z,0
2018-09-07T01:14:25.181Z,0
2018-09-07T01:15:35.133Z,0
2018-09-07T01:16:44.850Z,0
2018-09-07T01:17:54.811Z,0
2018-09-07T01:19:04.784Z,0
2018-09-07T01:20:14.728Z,0
2018-09-07T01:21:24.703Z,0
2018-09-07T01:22:34.661Z,0
2018-09-07T01:23:44.109Z,0
2018-09-07T01:24:54.067Z,0
2018-09-07T01:26:04.039Z,0
2018-09-07T01:27:13.996Z,0
2018-09-07T01:28:23.954Z,0
2018-09-07T01:29:33.907Z,0
2018-09-07T01:30:43.866Z,0
2018-09-07T01:31:53.567Z,0
2018-09-07T01:33:03.276Z,0
2018-09-07T01:34:13.250Z,0
2018-09-07T01:35:22.963Z,0
2018-09-07T01:36:32.917Z,0
2018-09-07T01:37:42.874Z,0
2018-09-07T01:38:52.833Z,0
2018-09-07T01:40:02.275Z,0
2018-09-07T01:41:12.197Z,0
2018-09-07T01:42:21.910Z,0
2018-09-07T01:43:31.867Z,0
2018-09-07T01:44:41.629Z,0
2018-09-07T01:45:51.261Z,0
2018-09-07T01:47:00.967Z,0
2018-09-07T01:48:10.677Z,0
2018-09-07T01:49:20.635Z,0
2018-09-07T01:50:30.368Z,0
2018-09-07T01:51:40.319Z,0
2018-09-07T01:52:50.277Z,0
2018-09-07T01:54:00.223Z,0
2018-09-07T01:55:10.176Z,0
2018-09-07T01:56:20.128Z,0
2018-09-07T01:57:29.836Z,0
2018-09-07T01:58:39.540Z,0
2018-09-07T01:59:49.493Z,0
2018-09-07T02:00:59.449Z,0
2018-09-07T02:02:09.158Z,0
2018-09-07T02:03:18.873Z,0
2018-09-07T02:04:28.825Z,0
2018-09-07T02:05:38.797Z,0
2018-09-07T02:06:48.751Z,0
2018-09-07T02:07:58.456Z,0
2018-09-07T02:09:08.425Z,0
2018-09-07T02:10:18.433Z,0
2018-09-07T02:11:28.391Z,0
2018-09-07T02:12:38.338Z,0
2018-09-07T02:13:47.797Z,0
2018-09-07T02:14:57.760Z,0
2018-09-07T02:16:07.734Z,0
2018-09-07T02:17:17.699Z,0
2018-09-07T02:18:27.664Z,0
2018-09-07T02:19:37.617Z,0
2018-09-07T02:20:47.565Z,0
2018-09-07T02:21:57.529Z,0
2018-09-07T02:23:07.240Z,0
2018-09-07T02:24:17.245Z,0
2018-09-07T02:25:27.203Z,0
2018-09-07T02:26:36.902Z,0
2018-09-07T02:27:46.874Z,0
2018-09-07T02:28:56.567Z,0
2018-09-07T02:30:06.531Z,0
2018-09-07T02:31:16.489Z,0
2018-09-07T02:32:26.457Z,0
2018-09-07T02:33:36.431Z,0
2018-09-07T02:34:46.136Z,0
2018-09-07T02:35:55.840Z,0
2018-09-07T02:37:05.306Z,0
2018-09-07T02:38:15.272Z,0
2018-09-07T02:39:24.987Z,0
2018-09-07T02:40:34.713Z,0
2018-09-07T02:41:44.673Z,0
2018-09-07T02:42:54.378Z,0
2018-09-07T02:44:04.075Z,0
2018-09-07T02:45:13.772Z,0
2018-09-07T02:46:23.738Z,0
2018-09-07T02:47:33.695Z,0
2018-09-07T02:48:43.649Z,0
2018-09-07T02:49:53.152Z,0
2018-09-07T02:51:03.104Z,0
2018-09-07T02:52:13.060Z,0
2018-09-07T02:53:23.176Z,0
2018-09-07T02:54:33.145Z,0
2018-09-07T02:55:42.846Z,0
2018-09-07T02:56:52.818Z,0
2018-09-07T02:58:02.786Z,0
2018-09-07T02:59:12.746Z,0
2018-09-07T03:00:22.710Z,0
2018-09-07T03:01:32.675Z,0
2018-09-07T03:02:42.371Z,0
2018-09-07T03:03:52.072Z,0
2018-09-07T03:05:02.043Z,0
2018-09-07T03:06:11.752Z,0
2018-09-07T03:07:21.458Z,0
2018-09-07T03:08:31.406Z,0
2018-09-07T03:09:41.105Z,0
2018-09-07T03:10:51.055Z,0
2018-09-07T03:12:01.028Z,0
2018-09-07T03:13:10.744Z,0
2018-09-07T03:14:20.725Z,0
2018-09-07T03:15:30.695Z,0
2018-09-07T03:16:40.646Z,0
2018-09-07T03:17:50.642Z,0
2018-09-07T03:19:00.591Z,0
2018-09-07T03:20:10.563Z,0
2018-09-07T03:21:20.527Z,0
2018-09-07T03:22:30.484Z,0
2018-09-07T03:23:40.383Z,0
2018-09-07T03:24:50.082Z,0
2018-09-07T03:26:00.056Z,0
2018-09-07T03:27:10.013Z,0
2018-09-07T03:28:19.969Z,0
2018-09-07T03:29:29.675Z,0
2018-09-07T03:30:39.711Z,0
2018-09-07T03:31:49.673Z,0
2018-09-07T03:32:59.626Z,0
2018-09-07T03:34:09.329Z,0
2018-09-07T03:35:19.315Z,0
2018-09-07T03:36:29.289Z,0
2018-09-07T03:37:39.238Z,0
2018-09-07T03:38:49.212Z,0
2018-09-07T03:39:59.167Z,0
2018-09-07T03:41:09.128Z,0
2018-09-07T03:42:18.837Z,0
2018-09-07T03:43:28.795Z,0
2018-09-07T03:44:38.753Z,0
2018-09-07T03:45:48.719Z,0
2018-09-07T03:46:58.435Z,0
2018-09-07T03:48:08.427Z,0
2018-09-07T03:49:17.910Z,0
2018-09-07T03:50:27.869Z,0
2018-09-07T03:51:37.834Z,0
2018-09-07T03:52:47.794Z,0
2018-09-07T03:53:57.489Z,0
2018-09-07T03:55:07.214Z,0
2018-09-07T03:56:17.214Z,0
2018-09-07T03:57:27.178Z,0
2018-09-07T03:58:36.868Z,0
2018-09-07T03:59:46.840Z,0
2018-09-07T04:00:56.803Z,0
2018-09-07T04:02:06.782Z,0
2018-09-07T04:03:16.500Z,0
2018-09-07T04:04:26.471Z,0
2018-09-07T04:05:36.436Z,0
2018-09-07T04:06:46.417Z,0
2018-09-07T04:07:56.401Z,0
2018-09-07T04:09:06.368Z,0
2018-09-07T04:10:16.070Z,0
2018-09-07T04:11:26.029Z,0
2018-09-07T04:12:36.006Z,0
2018-09-07T04:13:45.969Z,0
2018-09-07T04:14:55.923Z,0
2018-09-07T04:16:05.633Z,0
2018-09-07T04:17:15.337Z,0
2018-09-07T04:18:25.313Z,0
2018-09-07T04:19:35.280Z,0
2018-09-07T04:20:45.242Z,0
2018-09-07T04:21:55.203Z,0
2018-09-07T04:23:05.189Z,0
2018-09-07T04:24:15.195Z,0
2018-09-07T04:25:24.901Z,0
2018-09-07T04:26:34.638Z,0
2018-09-07T04:27:44.612Z,0
2018-09-07T04:28:54.584Z,0
2018-09-07T04:30:04.309Z,0
2018-09-07T04:31:14.281Z,0
2018-09-07T04:32:24.240Z,0
2018-09-07T04:33:34.196Z,0
2018-09-07T04:34:44.162Z,0
2018-09-07T04:35:54.144Z,0
2018-09-07T04:37:04.104Z,0
2018-09-07T04:38:14.077Z,0
2018-09-07T04:39:24.056Z,5
2018-09-07T04:40:34.040Z,5
2018-09-07T04:41:43.999Z,5
2018-09-07T04:42:53.724Z,5
2018-09-07T04:44:03.685Z,5
2018-09-07T04:45:13.391Z,5
2018-09-07T04:46:23.353Z,5
2018-09-07T04:47:33.319Z,5
2018-09-07T04:48:43.287Z,5
2018-09-07T04:49:53.234Z,5
2018-09-07T04:51:03.189Z,5
2018-09-07T04:52:12.909Z,5
2018-09-07T04:53:22.898Z,5
2018-09-07T04:54:32.867Z,5
2018-09-07T04:55:42.855Z,5
2018-09-07T04:56:52.842Z,10
2018-09-07T04:58:02.881Z,10
2018-09-07T04:59:12.598Z,10
2018-09-07T05:00:22.316Z,10
2018-09-07T05:01:32.274Z,10
2018-09-07T05:02:42.253Z,10
2018-09-07T05:03:51.967Z,10
2018-09-07T05:05:01.928Z,15
2018-09-07T05:06:11.647Z,15
2018-09-07T05:07:21.622Z,15
2018-09-07T05:08:31.572Z,20
2018-09-07T05:09:41.555Z,20
2018-09-07T05:10:51.005Z,20
2018-09-07T05:12:00.710Z,25
2018-09-07T05:13:10.420Z,25
2018-09-07T05:14:20.399Z,30
2018-09-07T05:15:30.357Z,30
2018-09-07T05:16:40.068Z,35
2018-09-07T05:17:49.522Z,35
2018-09-07T05:18:59.476Z,35
2018-09-07T05:20:09.436Z,40
2018-09-07T05:21:19.125Z,40
2018-09-07T05:22:28.893Z,40
2018-09-07T05:23:38.857Z,40
2018-09-07T05:24:48.816Z,40
2018-09-07T05:25:58.805Z,45
2018-09-07T05:27:08.514Z,45
2018-09-07T05:28:18.213Z,50
2018-09-07T05:29:27.928Z,50
2018-09-07T05:30:37.877Z,55
2018-09-07T05:31:48.204Z,55
2018-09-07T05:32:57.909Z,60
2018-09-07T05:34:07.615Z,65
2018-09-07T05:35:17.324Z,70
2018-09-07T05:36:27.281Z,70
2018-09-07T05:37:36.974Z,70
2018-09-07T05:38:46.680Z,80
2018-09-07T05:39:56.664Z,85
2018-09-07T05:41:06.635Z,90
2018-09-07T05:42:16.610Z,95
2018-09-07T05:43:26.061Z,95
2018-09-07T05:44:36.038Z,95
2018-09-07T05:45:46.006Z,95
2018-09-07T05:46:55.712Z,90
2018-09-07T05:48:05.410Z,85
2018-09-07T05:49:15.124Z,80
2018-09-07T05:50:24.839Z,80
2018-09-07T05:51:34.789Z,80
2018-09-07T05:52:44.495Z,80
2018-09-07T05:53:54.485Z,80
2018-09-07T05:55:04.460Z,75
2018-09-07T05:56:13.898Z,70
2018-09-07T05:57:23.872Z,70
2018-09-07T05:58:33.594Z,65
2018-09-07T05:59:43.717Z,60
2018-09-07T06:00:53.426Z,60
2018-09-07T06:02:03.388Z,60
2018-09-07T06:03:13.376Z,70
2018-09-07T06:04:23.077Z,70
2018-09-07T06:05:32.792Z,80
2018-09-07T06:06:42.751Z,90
2018-09-07T06:07:52.709Z,100
2018-09-07T06:09:02.675Z,110
2018-09-07T06:10:12.642Z,120
2018-09-07T06:11:22.609Z,130
2018-09-07T06:12:32.315Z,135
2018-09-07T06:13:42.276Z,145
2018-09-07T06:14:52.246Z,150
2018-09-07T06:16:02.428Z,160
2018-09-07T06:17:12.402Z,170
2018-09-07T06:18:21.860Z,170
2018-09-07T06:19:31.864Z,170
2018-09-07T06:20:41.833Z,170
2018-09-07T06:21:51.588Z,170
2018-09-07T06:23:01.620Z,170
2018-09-07T06:24:11.336Z,170
2018-09-07T06:25:21.361Z,170
2018-09-07T06:26:30.810Z,165
2018-09-07T06:27:40.559Z,155
2018-09-07T06:28:50.569Z,145
2018-09-07T06:30:00.531Z,140
2018-09-07T06:31:10.236Z,140
2018-09-07T06:32:19.684Z,140
2018-09-07T06:33:30.216Z,140
2018-09-07T06:34:40.226Z,140
2018-09-07T06:35:49.938Z,140
2018-09-07T06:36:59.983Z,140
2018-09-07T06:38:09.810Z,145
2018-09-07T06:39:20.140Z,145
2018-09-07T06:40:30.190Z,150
2018-09-07T06:41:40.160Z,160
2018-09-07T06:42:50.155Z,170
2018-09-07T06:44:00.139Z,180
2018-09-07T06:45:10.106Z,195
2018-09-07T06:46:20.090Z,205
2018-09-07T06:47:30.068Z,220
2018-09-07T06:48:40.033Z,230
2018-09-07T06:49:50.001Z,235
2018-09-07T06:50:59.703Z,240
2018-09-07T06:52:09.876Z,245
2018-09-07T06:53:19.833Z,250
2018-09-07T06:54:29.787Z,260
2018-09-07T06:55:38.993Z,260
2018-09-07T06:56:48.694Z,260
2018-09-07T06:57:58.741Z,255
2018-09-07T06:59:08.715Z,260
2018-09-07T07:00:18.424Z,255
2018-09-07T07:01:28.394Z,250
2018-09-07T07:02:38.943Z,250
2018-09-07T07:03:48.779Z,250
2018-09-07T07:04:58.503Z,250
2018-09-07T07:06:08.220Z,250
2018-09-07T07:07:18.286Z,250
2018-09-07T07:08:28.526Z,250
2018-09-07T07:09:38.557Z,250
2018-09-07T07:10:48.515Z,255
2018-09-07T07:11:58.479Z,270
2018-09-07T07:13:08.457Z,280
2018-09-07T07:14:18.429Z,300
2018-09-07T07:15:28.424Z,315
2018-09-07T07:16:38.410Z,330
2018-09-07T07:17:48.127Z,345
2018-09-07T07:18:58.090Z,355
2018-09-07T07:20:08.066Z,370
2018-09-07T07:21:18.041Z,390
2018-09-07T07:22:28.011Z,415
2018-09-07T07:23:37.739Z,430
2018-09-07T07:24:47.704Z,450
2018-09-07T07:25:57.417Z,460
2018-09-07T07:27:07.376Z,455
2018-09-07T07:28:17.392Z,445
2018-09-07T07:29:27.788Z,430
2018-09-07T07:30:37.518Z,415
2018-09-07T07:31:47.481Z,400
2018-09-07T07:32:57.469Z,385
2018-09-07T07:34:07.187Z,365
2018-09-07T07:35:17.161Z,355
2018-09-07T07:36:27.125Z,350
2018-09-07T07:37:37.117Z,335
2018-09-07T07:38:47.144Z,335
2018-09-07T07:39:56.897Z,330
2018-09-07T07:41:06.937Z,330
2018-09-07T07:42:16.918Z,335
2018-09-07T07:43:26.879Z,335
2018-09-07T07:44:36.642Z,340
2018-09-07T07:45:46.604Z,345
2018-09-07T07:46:56.567Z,350
2018-09-07T07:48:07.843Z,355
2018-09-07T07:49:17.650Z,355
2018-09-07T07:50:27.622Z,350
2018-09-07T07:51:37.331Z,340
2018-09-07T07:52:47.043Z,330
2018-09-07T07:53:57.029Z,315
2018-09-07T07:55:06.997Z,310
2018-09-07T07:56:16.978Z,305
2018-09-07T07:57:26.690Z,295
2018-09-07T07:58:36.658Z,285
2018-09-07T07:59:46.105Z,280
2018-09-07T08:00:55.550Z,280
2018-09-07T08:02:05.526Z,285
2018-09-07T08:03:15.503Z,285
2018-09-07T08:04:25.227Z,290
2018-09-07T08:05:34.974Z,295
2018-09-07T08:06:44.938Z,300
2018-09-07T08:07:54.893Z,305
2018-09-07T08:09:04.879Z,310
2018-09-07T08:10:14.837Z,310
2018-09-07T08:11:24.573Z,315
2018-09-07T08:12:35.046Z,315
2018-09-07T08:13:45.129Z,310
2018-09-07T08:14:55.111Z,310
2018-09-07T08:16:04.729Z,315
2018-09-07T08:17:14.743Z,320
2018-09-07T08:18:24.748Z,325
2018-09-07T08:19:34.502Z,335
2018-09-07T08:20:44.599Z,345
2018-09-07T08:21:54.676Z,355
2018-09-07T08:23:04.387Z,365
2018-09-07T08:24:14.367Z,390
2018-09-07T08:25:24.083Z,400
2018-09-07T08:26:34.255Z,420
2018-09-07T08:27:44.300Z,440
2018-09-07T08:28:54.042Z,460
2018-09-07T08:30:04.049Z,480
2018-09-07T08:31:14.017Z,490
2018-09-07T08:32:24.022Z,475
2018-09-07T08:33:34.187Z,460
2018-09-07T08:34:44.153Z,440
2018-09-07T08:35:53.872Z,415
2018-09-07T08:37:03.867Z,380
2018-09-07T08:38:13.614Z,345
2018-09-07T08:39:23.353Z,315
2018-09-07T08:40:33.598Z,310
2018-09-07T08:41:43.356Z,315
2018-09-07T08:42:53.338Z,335
2018-09-07T08:44:03.318Z,355
2018-09-07T08:45:13.291Z,375
2018-09-07T08:46:23.284Z,420
2018-09-07T08:47:33.312Z,470
2018-09-07T08:48:42.980Z,525
2018-09-07T08:49:52.771Z,580
2018-09-07T08:51:02.759Z,630
2018-09-07T08:52:12.202Z,665
2018-09-07T08:53:21.912Z,685
2018-09-07T08:54:31.746Z,695
2018-09-07T08:55:41.788Z,695
2018-09-07T08:56:51.763Z,705
2018-09-07T08:58:01.473Z,700
2018-09-07T08:59:11.444Z,670
2018-09-07T09:00:21.905Z,625
2018-09-07T09:01:31.968Z,595
2018-09-07T09:02:41.944Z,565
2018-09-07T09:03:51.413Z,535
2018-09-07T09:05:01.393Z,510
2018-09-07T09:06:11.095Z,480
2018-09-07T09:07:21.146Z,465
2018-09-07T09:08:30.946Z,450
2018-09-07T09:09:40.657Z,435
2018-09-07T09:10:50.638Z,420
2018-09-07T09:12:00.361Z,405
2018-09-07T09:13:10.334Z,405
2018-09-07T09:14:19.797Z,420
2018-09-07T09:15:29.522Z,440
2018-09-07T09:16:39.504Z,465
2018-09-07T09:17:49.729Z,485
2018-09-07T09:18:59.754Z,505
2018-09-07T09:20:09.765Z,520
2018-09-07T09:21:19.751Z,535
2018-09-07T09:22:29.719Z,545
2018-09-07T09:23:40.228Z,565
2018-09-07T09:24:50.302Z,590
2018-09-07T09:25:59.776Z,610
2018-09-07T09:27:09.486Z,615
2018-09-07T09:28:19.474Z,605
2018-09-07T09:29:29.196Z,570
2018-09-07T09:30:39.169Z,540
2018-09-07T09:31:48.905Z,530
2018-09-07T09:32:59.028Z,530
2018-09-07T09:34:09.104Z,540
2018-09-07T09:35:18.808Z,545
2018-09-07T09:36:28.559Z,550
2018-09-07T09:37:38.541Z,550
2018-09-07T09:38:48.762Z,550
2018-09-07T09:39:58.483Z,540
2018-09-07T09:41:08.467Z,525
2018-09-07T09:42:18.434Z,515
2018-09-07T09:43:28.154Z,515
2018-09-07T09:44:37.359Z,535
2018-09-07T09:45:47.351Z,580
2018-09-07T09:46:57.083Z,615
2018-09-07T09:48:07.083Z,655
2018-09-07T09:49:17.311Z,710
2018-09-07T09:50:27.104Z,770
2018-09-07T09:51:37.095Z,830
2018-09-07T09:52:47.147Z,905
2018-09-07T09:53:57.141Z,960
2018-09-07T09:55:06.889Z,1010
2018-09-07T09:56:17.169Z,1010
2018-09-07T09:57:27.223Z,1080
2018-09-07T09:58:38.007Z,1260
2018-09-07T09:59:47.753Z,1900
2018-09-07T10:00:57.480Z,1670
2018-09-07T10:02:07.465Z,1725
2018-09-07T10:03:17.174Z,2140
2018-09-07T10:04:27.150Z,1830
2018-09-07T10:05:37.292Z,1235
2018-09-07T10:06:47.083Z,910
2018-09-07T10:07:57.101Z,790
2018-09-07T10:09:07.104Z,715
2018-09-07T10:10:17.094Z,680
2018-09-07T10:11:27.057Z,615
2018-09-07T10:12:37.550Z,620
2018-09-07T10:13:47.523Z,660
2018-09-07T10:14:57.496Z,640
2018-09-07T10:16:07.224Z,615
2018-09-07T10:17:16.943Z,570
2018-09-07T10:18:26.665Z,485
2018-09-07T10:19:36.630Z,375
2018-09-07T10:20:46.631Z,310
2018-09-07T10:21:56.344Z,295
2018-09-07T10:23:06.291Z,330
2018-09-07T10:24:15.772Z,355
2018-09-07T10:25:25.980Z,355
2018-09-07T10:26:36.049Z,360
2018-09-07T10:27:45.777Z,425
2018-09-07T10:28:55.493Z,515
2018-09-07T10:30:05.467Z,565
2018-09-07T10:31:15.474Z,545
2018-09-07T10:32:25.476Z,455
2018-09-07T10:33:35.480Z,375
2018-09-07T10:34:45.456Z,335
2018-09-07T10:35:55.425Z,290
2018-09-07T10:37:05.179Z,280
2018-09-07T10:38:14.887Z,310
2018-09-07T10:39:24.652Z,410
2018-09-07T10:40:34.367Z,500
2018-09-07T10:41:44.352Z,485
2018-09-07T10:42:54.091Z,405
2018-09-07T10:44:04.212Z,295
2018-09-07T10:45:14.219Z,210
2018-09-07T10:46:23.960Z,155
2018-09-07T10:47:33.963Z,140
2018-09-07T10:48:43.944Z,160
2018-09-07T10:49:53.690Z,220
2018-09-07T10:51:03.436Z,265
2018-09-07T10:52:13.670Z,270
2018-09-07T10:53:24.213Z,290
2018-09-07T10:54:33.926Z,300
2018-09-07T10:55:43.675Z,310
2018-09-07T10:56:53.655Z,335
2018-09-07T10:58:03.374Z,355
2018-09-07T10:59:13.613Z,330
2018-09-07T11:00:23.657Z,315
2018-09-07T11:01:33.372Z,305
2018-09-07T11:02:43.369Z,305
2018-09-07T11:03:52.843Z,315
2018-09-07T11:05:02.581Z,315
2018-09-07T11:06:12.566Z,320
2018-09-07T11:07:22.275Z,330
2018-09-07T11:08:32.269Z,350
2018-09-07T11:09:42.261Z,375
2018-09-07T11:10:52.258Z,390
2018-09-07T11:12:02.246Z,400
2018-09-07T11:13:12.052Z,425
2018-09-07T11:14:21.800Z,475
2018-09-07T11:15:31.523Z,535
2018-09-07T11:16:41.519Z,595
2018-09-07T11:17:51.486Z,665
2018-09-07T11:19:01.515Z,720
2018-09-07T11:20:11.490Z,785
2018-09-07T11:21:20.955Z,850
2018-09-07T11:22:30.946Z,830
2018-09-07T11:23:40.941Z,775
2018-09-07T11:24:50.900Z,735
2018-09-07T11:26:00.888Z,735
2018-09-07T11:27:10.879Z,745
2018-09-07T11:28:20.845Z,730
2018-09-07T11:29:30.826Z,665
2018-09-07T11:30:40.819Z,590
2018-09-07T11:31:50.805Z,535
2018-09-07T11:33:01.019Z,530
2018-09-07T11:34:11.026Z,505
2018-09-07T11:35:21.540Z,420
2018-09-07T11:36:31.700Z,325
2018-09-07T11:37:41.802Z,270
2018-09-07T11:38:51.817Z,260
2018-09-07T11:40:02.031Z,230
2018-09-07T11:41:12.330Z,205
2018-09-07T11:42:22.144Z,200
2018-09-07T11:43:31.870Z,205
2018-09-07T11:44:41.863Z,200
2018-09-07T11:45:51.595Z,195
2018-09-07T11:47:01.055Z,195
2018-09-07T11:48:11.035Z,200
2018-09-07T11:49:21.190Z,205
2018-09-07T11:50:31.219Z,220
2018-09-07T11:51:41.191Z,260
2018-09-07T11:52:51.186Z,320
2018-09-07T11:54:01.186Z,425
2018-09-07T11:55:11.216Z,580
2018-09-07T11:56:21.207Z,750
2018-09-07T11:57:31.183Z,945
2018-09-07T11:58:41.024Z,1390
2018-09-07T11:59:50.737Z,1515
2018-09-07T12:01:00.699Z,1650
2018-09-07T12:02:11.245Z,1710
2018-09-07T12:03:21.046Z,2735
2018-09-07T12:04:31.882Z,2325
2018-09-07T12:05:41.738Z,2490
2018-09-07T12:06:51.708Z,2645
2018-09-07T12:08:01.692Z,2720
2018-09-07T12:09:11.403Z,2485
2018-09-07T12:10:21.390Z,2100
2018-09-07T12:11:31.397Z,1140
2018-09-07T12:12:41.557Z,855
2018-09-07T12:13:51.577Z,680
2018-09-07T12:15:01.596Z,830
2018-09-07T12:16:11.327Z,1400
2018-09-07T12:17:21.564Z,1415
2018-09-07T12:18:31.553Z,1285
2018-09-07T12:19:41.570Z,1525
2018-09-07T12:20:51.559Z,2045
2018-09-07T12:22:01.558Z,2600
2018-09-07T12:23:11.595Z,2515
2018-09-07T12:24:21.571Z,2665
2018-09-07T12:25:31.297Z,2040
2018-09-07T12:26:40.776Z,1370
2018-09-07T12:27:50.753Z,1300
2018-09-07T12:29:00.487Z,1095
2018-09-07T12:30:10.480Z,1140
2018-09-07T12:31:20.478Z,1405
2018-09-07T12:32:30.460Z,2255
2018-09-07T12:33:40.215Z,1475
2018-09-07T12:34:50.660Z,1690
2018-09-07T12:36:00.422Z,2075
2018-09-07T12:37:10.237Z,1485
2018-09-07T12:38:20.231Z,1290
2018-09-07T12:39:30.231Z,1135
2018-09-07T12:40:40.252Z,995
2018-09-07T12:41:50.316Z,1105
2018-09-07T12:43:00.301Z,2075
2018-09-07T12:44:10.282Z,1125
2018-09-07T12:45:19.733Z,1400
2018-09-07T12:46:29.739Z,1075
2018-09-07T12:47:39.460Z,1195
2018-09-07T12:48:49.561Z,2320
2018-09-07T12:49:59.278Z,1385
2018-09-07T12:51:09.264Z,1080
2018-09-07T12:52:18.982Z,1015
2018-09-07T12:53:28.988Z,690
2018-09-07T12:54:38.976Z,685
2018-09-07T12:55:48.974Z,710
2018-09-07T12:56:58.951Z,730
2018-09-07T12:58:08.417Z,1025
2018-09-07T12:59:18.393Z,1070
2018-09-07T13:00:28.128Z,2410
2018-09-07T13:01:38.105Z,2570
2018-09-07T13:02:47.828Z,2510
2018-09-07T13:03:57.819Z,2550
2018-09-07T13:05:07.544Z,2450
2018-09-07T13:06:17.013Z,2435
2018-09-07T13:07:27.236Z,2375
2018-09-07T13:08:36.699Z,1355
2018-09-07T13:09:46.682Z,1260
2018-09-07T13:10:56.409Z,2035
2018-09-07T13:12:06.392Z,1650
2018-09-07T13:13:16.094Z,2190
2018-09-07T13:14:26.099Z,2135
2018-09-07T13:15:36.096Z,2340
2018-09-07T13:16:45.811Z,1830
2018-09-07T13:17:55.780Z,2125
2018-09-07T13:19:05.773Z,1940
2018-09-07T13:20:15.760Z,2265
2018-09-07T13:21:25.493Z,1580
2018-09-07T13:22:35.221Z,1945
2018-09-07T13:23:45.206Z,1055
2018-09-07T13:24:55.181Z,1060
2018-09-07T13:26:05.162Z,2145
2018-09-07T13:27:14.901Z,905
2018-09-07T13:28:24.897Z,950
2018-09-07T13:29:34.910Z,2205
2018-09-07T13:30:44.631Z,2255
2018-09-07T13:31:54.633Z,2240
2018-09-07T13:33:04.616Z,2575
2018-09-07T13:34:14.600Z,1955
2018-09-07T13:35:24.600Z,1625
2018-09-07T13:36:34.594Z,2040
2018-09-07T13:37:44.614Z,2555
2018-09-07T13:38:54.076Z,2635
2018-09-07T13:40:04.059Z,2385
2018-09-07T13:41:13.849Z,2345
2018-09-07T13:42:23.381Z,2395
2018-09-07T13:43:33.084Z,2350
2018-09-07T13:44:43.071Z,2375
2018-09-07T13:45:53.054Z,2360
2018-09-07T13:47:03.029Z,2325
2018-09-07T13:48:13.066Z,1175
2018-09-07T13:49:23.112Z,1195
2018-09-07T13:50:33.112Z,2310
2018-09-07T13:51:42.845Z,2490
2018-09-07T13:52:52.816Z,2490
2018-09-07T13:54:02.787Z,2475
2018-09-07T13:55:12.770Z,2530
2018-09-07T13:56:22.752Z,2600
2018-09-07T13:57:32.729Z,2540
2018-09-07T13:58:42.717Z,2470
2018-09-07T13:59:52.432Z,2420
2018-09-07T14:01:02.163Z,2325
2018-09-07T14:02:11.885Z,2295
2018-09-07T14:03:21.846Z,2265
2018-09-07T14:04:31.555Z,2255
2018-09-07T14:05:41.544Z,2300
2018-09-07T14:06:51.556Z,2140
2018-09-07T14:08:01.530Z,2160
2018-09-07T14:09:11.010Z,1770
2018-09-07T14:10:21.019Z,2355
2018-09-07T14:11:31.009Z,2445
2018-09-07T14:12:41.001Z,2355
2018-09-07T14:13:50.991Z,2300
2018-09-07T14:15:00.966Z,2310
2018-09-07T14:16:10.948Z,1525
2018-09-07T14:17:20.942Z,2085
2018-09-07T14:18:30.913Z,1610
2018-09-07T14:19:40.674Z,2155
2018-09-07T14:20:50.396Z,2060
2018-09-07T14:22:00.735Z,1985
2018-09-07T14:23:10.457Z,1175
2018-09-07T14:24:20.487Z,1160
2018-09-07T14:25:30.468Z,1635
2018-09-07T14:26:39.942Z,2325
2018-09-07T14:27:49.922Z,2335
2018-09-07T14:28:59.895Z,2250
2018-09-07T14:30:09.917Z,2145
2018-09-07T14:31:19.885Z,2190
2018-09-07T14:32:29.871Z,2265
2018-09-07T14:33:39.867Z,2160
2018-09-07T14:34:49.583Z,2030
2018-09-07T14:35:59.325Z,1865
2018-09-07T14:37:09.046Z,1670
2018-09-07T14:38:19.033Z,1710
2018-09-07T14:39:29.008Z,1760
2018-09-07T14:40:38.991Z,1630
2018-09-07T14:41:48.718Z,1595
2018-09-07T14:42:58.727Z,1690
2018-09-07T14:44:08.729Z,1770
2018-09-07T14:45:18.442Z,1770
2018-09-07T14:46:28.450Z,1810
2018-09-07T14:47:38.416Z,1825
2018-09-07T14:48:48.760Z,1745
2018-09-07T14:49:58.563Z,1275
2018-09-07T14:51:08.567Z,1265
2018-09-07T14:52:18.296Z,790
2018-09-07T14:53:28.001Z,790
2018-09-07T14:54:38.222Z,1325
2018-09-07T14:55:48.273Z,1460
2018-09-07T14:56:57.984Z,1450
2018-09-07T14:58:07.964Z,705
2018-09-07T14:59:17.419Z,850
2018-09-07T15:00:27.705Z,1000
2018-09-07T15:01:37.684Z,1010
2018-09-07T15:02:47.654Z,625
2018-09-07T15:03:57.645Z,670
2018-09-07T15:05:07.630Z,480
2018-09-07T15:06:18.061Z,400
2018-09-07T15:07:28.077Z,350
2018-09-07T15:08:38.048Z,335
2018-09-07T15:09:47.824Z,315
2018-09-07T15:10:57.550Z,305
2018-09-07T15:12:07.523Z,305
2018-09-07T15:13:17.491Z,310
2018-09-07T15:14:26.955Z,310
2018-09-07T15:15:36.682Z,315
2018-09-07T15:16:46.660Z,330
2018-09-07T15:17:56.400Z,385
2018-09-07T15:19:06.379Z,440
2018-09-07T15:20:16.337Z,440
2018-09-07T15:21:25.804Z,400
2018-09-07T15:22:35.778Z,365
2018-09-07T15:23:45.508Z,365
2018-09-07T15:24:55.484Z,370
2018-09-07T15:26:05.545Z,370
2018-09-07T15:27:15.540Z,345
2018-09-07T15:28:25.540Z,335
2018-09-07T15:29:35.528Z,360
2018-09-07T15:30:45.516Z,405
2018-09-07T15:31:55.238Z,855
2018-09-07T15:33:04.945Z,780
2018-09-07T15:34:14.871Z,485
2018-09-07T15:35:24.928Z,515
2018-09-07T15:36:34.383Z,535
2018-09-07T15:37:44.362Z,855
2018-09-07T15:38:54.350Z,645
2018-09-07T15:40:04.337Z,530
2018-09-07T15:41:14.325Z,525
2018-09-07T15:42:24.718Z,515
2018-09-07T15:43:34.778Z,475
2018-09-07T15:44:44.496Z,440
2018-09-07T15:45:53.963Z,405
2018-09-07T15:47:03.710Z,375
2018-09-07T15:48:13.684Z,325
2018-09-07T15:49:23.402Z,290
2018-09-07T15:50:33.369Z,260
2018-09-07T15:51:43.363Z,240
2018-09-07T15:52:53.328Z,220
2018-09-07T15:54:03.302Z,195
2018-09-07T15:55:13.300Z,180
2018-09-07T15:56:23.321Z,165
2018-09-07T15:57:33.036Z,165
2018-09-07T15:58:43.164Z,175
2018-09-07T15:59:53.283Z,180
2018-09-07T16:01:02.736Z,185
2018-09-07T16:02:12.693Z,195
2018-09-07T16:03:22.676Z,200
2018-09-07T16:04:32.670Z,225
2018-09-07T16:05:42.392Z,250
2018-09-07T16:06:52.103Z,260
2018-09-07T16:08:01.822Z,260
2018-09-07T16:09:11.283Z,240
2018-09-07T16:10:21.263Z,315
2018-09-07T16:11:30.977Z,215
2018-09-07T16:12:40.959Z,215
2018-09-07T16:13:50.662Z,265
2018-09-07T16:15:00.625Z,320
2018-09-07T16:16:10.620Z,200
2018-09-07T16:17:20.596Z,185
2018-09-07T16:18:30.571Z,205